Latest Weather Observations for Cairns Racecourse

IDQ60801

Issued at 9:32 pm EST Wednesday 29 July 2015 (issued every 30 minutes, with the page automatically refreshed every 10 minutes)

About weather observations | Map of weather stations | Latest weather observations for QLD | Other Formats
Station Details ID: 031222 Name: CAIRNS RACECOURSE Lat: -16.95 Lon: 145.75 Height: 4.1 m
Data from the previous 72 hours. | See also: Recent months for locations in Queensland
Date/Time
EST
Temp
°C
App
Temp
°C
Dew
Point
Rel
Hum
%
Delta-T
°C
Wind Press
QNH
hPa
Press
MSL
hPa
Rain
since 9 am
mm
Dir
 
Spd
km/h
Gust
km/h
Spd
kts
Gust
kts
29/09:30pm 20.8 20.6 18.6 87 1.4 SSE 17 24 9 13 - - 0.8
29/09:00pm 20.6 20.5 18.7 89 1.2 SSE 17 30 9 16 - - 0.8
29/08:30pm 20.4 20.4 18.9 91 0.9 SSE 17 26 9 14 - - 0.8
29/08:00pm 20.6 20.4 18.5 88 1.3 S 17 28 9 15 - - 0.0
29/07:30pm 20.6 19.0 18.4 87 1.4 SSE 24 39 13 21 - - 0.0
29/07:00pm 20.9 19.3 18.3 85 1.6 S 24 33 13 18 - - 0.0
29/06:30pm 21.0 19.5 18.6 86 1.5 SSE 24 37 13 20 - - 0.0
29/06:00pm 21.1 19.9 18.5 85 1.6 SSE 22 32 12 17 - - 0.0
29/05:30pm 21.3 20.4 18.3 83 1.9 SSE 20 30 11 16 - - 0.0
29/05:00pm 21.5 19.7 17.9 80 2.2 SSE 24 33 13 18 - - 0.0
29/04:30pm 21.4 20.3 17.8 80 2.2 SSE 20 37 11 20 - - 0.0
29/04:00pm 21.6 19.7 17.6 78 2.5 SE 24 35 13 19 - - 0.0
29/03:30pm 22.0 19.7 17.6 76 2.7 SE 26 41 14 22 - - 0.0
29/03:00pm 22.3 20.3 17.4 74 3.0 SSE 24 39 13 21 - - 0.0
29/02:30pm 23.4 20.6 17.2 68 3.8 SE 28 48 15 26 - - 0.0
29/02:10pm 24.1 21.4 17.6 67 4.0 SSE 28 46 15 25 - - 0.0
29/02:00pm 23.9 20.5 17.6 68 3.9 SE 32 48 17 26 - - 0.0
29/01:55pm 23.7 20.6 17.4 68 3.9 SE 30 48 16 26 - - 0.0
29/01:30pm 23.4 20.7 17.6 70 3.6 SSE 28 44 15 24 - - 0.0
29/01:00pm 23.7 20.8 17.9 70 3.6 SE 30 43 16 23 - - 0.0
29/12:30pm 23.5 20.4 17.5 69 3.7 SE 30 44 16 24 - - 0.0
29/12:00pm 24.5 21.0 17.5 65 4.4 SE 32 50 17 27 - - 0.0
29/11:30am 24.5 21.6 18.0 67 4.1 SE 30 50 16 27 - - 0.0
29/11:27am 24.3 21.6 17.5 66 4.2 SE 28 46 15 25 - - 0.0
29/11:00am 23.8 22.0 17.8 69 3.7 SSE 24 37 13 20 - - 0.0
29/10:30am 22.6 21.3 17.3 72 3.3 SSE 20 30 11 16 - - 0.0
29/10:00am 22.3 20.5 17.0 72 3.2 S 22 32 12 17 - - 0.0
29/09:30am 21.9 20.8 17.3 75 2.8 SSE 19 30 10 16 - - 0.0
29/09:00am 21.5 19.5 16.5 73 3.0 SSE 22 35 12 19 - - 3.4
29/08:30am 21.1 19.6 16.7 76 2.7 SSE 20 35 11 19 - - 3.4
29/08:00am 20.8 19.8 16.6 77 2.5 SSE 17 24 9 13 - - 3.4
29/07:30am 20.2 19.1 16.4 79 2.3 SSE 17 28 9 15 - - 3.4
29/07:00am 20.0 18.4 16.6 81 2.1 SSE 20 30 11 16 - - 3.4
29/06:30am 20.0 18.1 16.8 82 1.9 S 22 32 12 17 - - 3.4
29/06:00am 20.1 18.9 17.1 83 1.8 SSE 19 28 10 15 - - 3.4
29/05:30am 19.8 19.5 17.4 86 1.5 SSE 15 26 8 14 - - 3.4
29/05:00am 20.3 19.6 17.3 83 1.8 SSE 17 32 9 17 - - 3.4
29/04:30am 20.3 19.7 17.5 84 1.7 SSE 17 24 9 13 - - 3.4
29/04:00am 20.6 19.5 17.8 84 1.7 SSE 20 30 11 16 - - 3.4
29/03:30am 20.8 18.7 18.0 84 1.7 SSE 26 35 14 19 - - 3.4
29/03:00am 20.6 19.4 18.5 88 1.3 SSE 22 41 12 22 - - 3.4
29/02:30am 20.6 19.6 18.9 90 1.1 SSE 22 33 12 18 - - 3.4
29/02:00am 20.7 20.3 19.0 90 1.1 SSE 19 28 10 15 - - 3.4
29/01:30am 20.9 20.9 19.0 89 1.2 SSE 17 26 9 14 - - 3.2
29/01:00am 20.9 21.8 19.2 90 1.1 SSE 13 19 7 10 - - 3.2
29/12:30am 20.6 21.4 19.1 91 0.9 S 13 19 7 10 - - 3.2
29/12:00am 20.7 21.6 19.2 91 0.9 S 13 17 7 9 - - 3.2
 
Date/Time
EST
Temp
°C
App
Temp
°C
Dew
Point
Rel
Hum
%
Delta-T
°C
Wind Press
QNH
hPa
Press
MSL
hPa
Rain
since 9 am
mm
Dir
 
Spd
km/h
Gust
km/h
Spd
kts
Gust
kts
28/11:30pm 21.0 22.6 19.1 89 1.2 SE 9 13 5 7 - - 3.0
28/11:00pm 21.2 21.9 18.9 87 1.4 S 13 20 7 11 - - 3.0
28/10:30pm 21.0 21.7 18.9 88 1.3 S 13 19 7 10 - - 3.0
28/10:00pm 20.9 22.1 19.0 89 1.2 S 11 15 6 8 - - 3.0
28/09:30pm 20.7 21.6 19.2 91 0.9 S 13 17 7 9 - - 3.0
28/09:00pm 20.7 22.0 19.2 91 0.9 S 11 19 6 10 - - 3.0
28/08:30pm 20.8 21.7 19.3 91 0.9 S 13 20 7 11 - - 3.0
28/08:00pm 20.7 21.2 19.2 91 0.9 S 15 24 8 13 - - 3.0
28/07:30pm 20.6 21.1 19.3 92 0.8 S 15 24 8 13 - - 3.0
28/07:00pm 20.5 20.8 19.5 94 0.6 S 17 28 9 15 - - 3.0
28/06:30pm 20.6 20.6 19.8 95 0.5 SSE 19 26 10 14 - - 2.8
28/06:00pm 20.8 21.3 20.0 95 0.5 SSE 17 26 9 14 - - 2.0
28/05:30pm 21.1 21.5 19.9 93 0.8 S 17 24 9 13 - - 1.2
28/05:00pm 22.0 22.6 19.5 86 1.6 S 15 22 8 12 - - 0.8
28/04:30pm 22.1 22.3 19.3 84 1.8 SSE 17 28 9 15 - - 0.8
28/04:00pm 21.9 22.9 19.5 86 1.5 SSE 13 22 7 12 - - 0.8
28/03:30pm 22.4 23.4 20.3 88 1.4 SE 15 20 8 11 - - 0.8
28/03:00pm 23.4 24.0 20.3 83 2.0 SSE 17 24 9 13 - - 0.0
28/02:30pm 23.1 23.2 20.4 85 1.7 SSE 20 39 11 21 - - 0.0
28/02:00pm 25.1 24.8 19.5 71 3.6 SE 20 35 11 19 - - 0.0
28/01:30pm 26.1 25.5 19.7 68 4.1 SSE 22 32 12 17 - - 0.0
28/01:00pm 26.8 26.6 19.7 65 4.6 SE 20 30 11 16 - - 0.0
28/12:30pm 26.1 25.9 19.7 68 4.1 SE 20 28 11 15 - - 0.0
28/12:00pm 26.0 26.1 19.9 69 4.0 SSE 19 28 10 15 - - 0.0
28/11:30am 25.9 26.4 20.0 70 3.8 SE 17 24 9 13 - - 0.0
28/11:00am 25.4 25.3 19.5 70 3.8 SSE 19 30 10 16 - - 0.0
28/10:30am 25.1 24.8 19.5 71 3.6 SSE 20 30 11 16 - - 0.0
28/10:00am 24.7 25.5 19.8 74 3.2 SSE 15 24 8 13 - - 0.0
28/09:30am 24.3 24.8 20.0 77 2.8 SSE 17 24 9 13 - - 0.0
28/09:00am 23.6 24.5 20.1 81 2.3 S 15 22 8 12 - - 0.2
28/08:30am 22.6 23.4 19.9 85 1.7 S 15 26 8 14 - - 0.2
28/08:00am 22.1 23.3 20.0 88 1.3 S 13 19 7 10 - - 0.2
28/07:30am 21.8 23.4 19.9 89 1.2 S 11 17 6 9 - - 0.2
28/07:00am 21.5 22.5 19.4 88 1.3 S 13 19 7 10 - - 0.2
28/06:30am 20.8 22.5 19.3 91 0.9 S 9 15 5 8 - - 0.2
28/06:00am 21.0 22.1 19.6 92 0.9 SSE 13 22 7 12 - - 0.2
28/05:30am 20.0 22.8 18.8 93 0.8 E 2 7 1 4 - - 0.0
28/05:00am 20.0 23.1 18.7 92 0.8 CALM 0 0 0 0 - - 0.0
28/04:30am 20.1 22.3 18.4 90 1.1 E 4 9 2 5 - - 0.0
28/04:00am 19.7 21.7 17.8 89 1.2 S 4 7 2 4 - - 0.0
28/03:30am 19.9 22.4 18.2 90 1.1 SE 2 7 1 4 - - 0.0
28/03:00am 19.8 21.4 17.9 89 1.2 ESE 6 7 3 4 - - 0.0
28/02:30am 19.5 21.2 18.0 91 0.9 SE 6 9 3 5 - - 0.0
28/02:00am 19.4 20.8 17.7 90 1.0 SSE 7 9 4 5 - - 0.0
28/01:30am 19.3 20.8 17.6 90 1.0 SE 6 9 3 5 - - 0.0
28/01:00am 19.5 20.9 17.8 90 1.0 ESE 7 9 4 5 - - 0.0
28/12:30am 18.5 19.9 17.3 93 0.7 S 6 9 3 5 - - 0.0
28/12:00am 18.9 21.6 17.7 93 0.7 CALM 0 0 0 0 - - 0.0
 
Date/Time
EST
Temp
°C
App
Temp
°C
Dew
Point
Rel
Hum
%
Delta-T
°C
Wind Press
QNH
hPa
Press
MSL
hPa
Rain
since 9 am
mm
Dir
 
Spd
km/h
Gust
km/h
Spd
kts
Gust
kts
27/11:30pm 19.3 22.2 18.1 93 0.7 CALM 0 4 0 2 - - 0.0
27/11:00pm 20.0 21.7 18.5 91 0.9 SE 7 9 4 5 - - 0.0
27/10:30pm 20.5 22.2 18.4 88 1.3 ESE 7 9 4 5 - - 0.0
27/10:00pm 20.4 22.0 18.3 88 1.3 SE 7 11 4 6 - - 0.0
27/09:30pm 20.0 21.7 18.1 89 1.2 SE 6 9 3 5 - - 0.0
27/09:00pm 20.4 22.0 18.2 87 1.4 ESE 7 9 4 5 - - 0.0
27/08:30pm 21.0 22.3 18.4 85 1.6 SE 9 11 5 6 - - 0.0
27/08:00pm 21.0 22.6 18.2 84 1.7 SE 7 11 4 6 - - 0.0
27/07:30pm 22.0 23.3 18.4 80 2.3 SSE 9 13 5 7 - - 0.0
27/07:00pm 21.2 23.7 18.2 83 1.9 SSE 2 11 1 6 - - 0.0
27/06:30pm 22.6 24.1 19.0 80 2.3 SE 9 13 5 7 - - 0.0
27/06:00pm 23.2 24.8 19.1 78 2.6 SSE 9 13 5 7 - - 0.0
27/05:30pm 24.0 24.2 18.6 72 3.4 ESE 15 20 8 11 - - 0.0
27/05:00pm 25.1 24.3 18.5 67 4.2 ESE 20 28 11 15 - - 0.0
27/04:30pm 25.7 24.9 17.9 62 4.9 ESE 19 28 10 15 - - 0.0
27/04:00pm 26.4 26.0 18.8 63 4.9 ESE 19 35 10 19 - - 0.0
27/03:30pm 26.8 25.3 17.8 57 5.7 ESE 22 33 12 18 - - 0.0
27/03:00pm 27.0 26.3 18.3 59 5.5 E 19 30 10 16 - - 0.0
27/02:30pm 26.9 25.3 17.4 56 6.0 E 22 39 12 21 - - 0.0
27/02:00pm 27.5 26.8 18.2 57 5.9 ESE 19 30 10 16 - - 0.0
27/01:30pm 27.4 26.6 18.1 57 5.9 ESE 19 28 10 15 - - 0.0
27/01:00pm 27.2 27.2 19.0 61 5.3 E 17 26 9 14 - - 0.0
27/12:30pm 27.1 26.9 18.4 59 5.5 SE 17 24 9 13 - - 0.0
27/12:00pm 27.0 26.1 18.3 59 5.5 SE 20 32 11 17 - - 0.0
27/11:30am 26.5 25.7 18.4 61 5.1 SSE 20 30 11 16 - - 0.0
27/11:00am 26.3 26.2 18.7 63 4.9 SE 17 26 9 14 - - 0.0
27/10:30am 25.7 25.5 18.6 65 4.5 SE 17 28 9 15 - - 0.0
27/10:00am 25.0 24.9 18.7 68 4.0 SSE 17 28 9 15 - - 0.0
27/09:30am 24.7 25.3 19.5 73 3.3 SSE 15 20 8 11 - - 0.0
27/09:00am 23.7 24.9 19.8 79 2.5 SE 13 20 7 11 - - 0.0
27/08:30am 22.1 23.7 19.1 83 1.9 SSE 9 15 5 8 - - 0.0
27/08:00am 20.8 22.9 19.3 91 0.9 SE 7 11 4 6 - - 0.0
27/07:30am 19.5 21.0 18.8 96 0.4 ESE 9 13 5 7 - - 0.0
27/07:00am 18.4 19.8 17.9 97 0.3 SE 7 9 4 5 - - 0.0
27/06:30am 18.5 20.1 17.8 96 0.4 SSW 6 7 3 4 - - 0.0
27/06:00am 18.9 20.5 18.2 96 0.4 SE 7 9 4 5 - - 0.0
27/05:30am 18.1 19.9 17.3 95 0.5 SE 4 9 2 5 - - 0.0
27/05:00am 19.0 21.9 18.3 96 0.4 CALM 0 0 0 0 - - 0.0
27/04:30am 19.1 20.9 18.3 95 0.5 SSE 6 9 3 5 - - 0.0
27/04:00am 19.2 20.9 18.4 95 0.5 S 7 9 4 5 - - 0.0
27/03:30am 19.5 21.5 18.7 95 0.5 SSE 6 7 3 4 - - 0.0
27/03:00am 19.7 21.6 18.5 93 0.7 S 6 7 3 4 - - 0.0
27/02:30am 20.1 22.1 19.1 94 0.6 SSE 7 9 4 5 - - 0.0
27/02:00am 20.5 22.7 19.2 92 0.8 SE 6 9 3 5 - - 0.0
27/01:30am 21.0 23.2 19.3 90 1.1 SE 6 6 3 3 - - 0.0
27/01:00am 21.1 23.3 19.2 89 1.2 S 6 13 3 7 - - 0.0
27/12:30am 21.6 24.4 19.7 89 1.2 SSE 4 9 2 5 - - 0.0
27/12:00am 22.3 25.0 20.2 88 1.4 S 6 11 3 6 - - 0.0
 
Date/Time
EST
Temp
°C
App
Temp
°C
Dew
Point
Rel
Hum
%
Delta-T
°C
Wind Press
QNH
hPa
Press
MSL
hPa
Rain
since 9 am
mm
Dir
 
Spd
km/h
Gust
km/h
Spd
kts
Gust
kts
26/11:30pm 22.1 24.8 20.2 89 1.2 S 6 7 3 4 - - 0.0
26/11:00pm 22.5 25.1 20.4 88 1.4 SSE 7 11 4 6 - - 0.0
26/10:30pm 22.6 25.3 20.3 87 1.5 SSE 6 9 3 5 - - 0.0
26/10:00pm 23.0 25.2 20.3 85 1.7 SSE 9 13 5 7 - - 0.0

Other Formats:

Comma delimited format used in spreadsheet applications
http://www.bom.gov.au/fwo/IDQ60801/IDQ60801.94288.axf

JavaScript Object Notation format (JSON) in row-major order
http://www.bom.gov.au/fwo/IDQ60801/IDQ60801.94288.json